map of HAS home
HAS - Airport
Location
City:  Ha'il, Saudi Arabia
Name:Ha'il Airport
ICAO:OEHL
IATA:HAS

Details
Type:Airport (Aerodrome, Airfield)
Use:Public/Civil
Latitude:2726'23"N (27.439722)
Longitude:4141'11"E (41.686389)
Elevation:3331 ft (1015 m)
Variation:3.96E (WMM2015 magnetic declination)
0.06 annual change
Runways:1
Longest:10827 × 148 ft (3300 × 45 m), paved

Time
Time Zone:UTC+3
Local Time:

Weather
METAR:OEHL 161900Z 10004KT CAVOK 17/M01 Q1024 NOSIG

Related Locations
Nearby:
Farthest:GMR: 12067 mi / 19419 km
Mangareva [Totegegie], Gambier Islands, PF

Find:

   beyond  
but within

Other Information
Maps:
NOTAMs:
Links:
Sources:

  
  • flag of Saudi Arabia
  

Sectional Chart

Flight Planning
at skyvector.com

Satellite Image

Google Maps Satellite view

 

Copyright © 2004-2018 Karl L. Swartz. All rights reserved.
The Great Circle Mapper name and logo are trademarks of the Great Circle Mapper.
All other trademarks mentioned herein belong to their respective owners.
Please see credits for attibutions and further copyright information.

  Follow gcmap on Facebook Follow gcmap on Twitter Follow gcmap on Google+ GCmap on LinkedIn

hCard Microformat

Geo Microformat